Time;durP1;ratioP1;P1;durP2;ratioP2;P2;SDS_P1;SDS_P2;PMS_P1;PMS_P2;Temp;Humidity;BMP_temperature;BMP_pressure;BME280_temperature;BME280_humidity;BME280_pressure;Samples;Min_cycle;Max_cycle;Signal;HPM_P1;HPM_P2
2022/01/14 00:01:24;;;;;;;3.53;2.27;;;;;;;;;;5060418;28;20294;-67
2022/01/14 00:04:12;;;;;;;3.43;2.30;;;;;;;;;;5061210;28;20238;-67
2022/01/14 00:06:59;;;;;;;2.47;1.83;;;;;;;;;;5061697;28;20222;-67
2022/01/14 00:09:47;;;;;;;3.73;2.40;;;;;;;;;;5062068;28;20307;-68
2022/01/14 00:12:39;;;;;;;3.47;1.73;;;;;;;;;;5062720;28;20563;-67
2022/01/14 00:15:28;;;;;;;4.70;2.30;;;;;;;;;;5060956;28;20694;-67
2022/01/14 00:18:15;;;;;;;3.00;2.33;;;;;;;;;;5058809;28;20570;-67
2022/01/14 00:21:04;;;;;;;3.57;2.20;;;;;;;;;;5061525;28;20238;-68
2022/01/14 00:23:51;;;;;;;4.67;2.10;;;;;;;;;;5060028;28;20227;-67
2022/01/14 00:32:57;;;;;;;3.97;2.30;;;;;;;;;;5064608;28;20207;-68
2022/01/14 00:35:44;;;;;;;2.73;2.10;;;;;;;;;;5066203;28;20247;-67
2022/01/14 00:38:32;;;;;;;5.03;2.37;;;;;;;;;;5057870;28;21422;-67
2022/01/14 00:41:19;;;;;;;3.77;2.27;;;;;;;;;;5062154;28;20207;-69
2022/01/14 00:44:11;;;;;;;3.37;2.17;;;;;;;;;;5065108;28;20675;-67
2022/01/14 00:46:57;;;;;;;2.63;1.93;;;;;;;;;;5059698;28;20625;-69
2022/01/14 00:49:44;;;;;;;2.97;2.20;;;;;;;;;;5067059;28;20211;-67
2022/01/14 00:52:31;;;;;;;3.50;2.00;;;;;;;;;;5063987;28;20288;-67
2022/01/14 00:55:27;;;;;;;3.27;1.90;;;;;;;;;;5064333;28;20274;-67
2022/01/14 01:01:18;;;;;;;3.70;2.47;;;;;;;;;;5063773;28;20204;-67
2022/01/14 01:04:05;;;;;;;4.63;2.50;;;;;;;;;;5064183;28;20223;-67
2022/01/14 01:06:52;;;;;;;3.50;2.17;;;;;;;;;;5065626;28;20221;-67
2022/01/14 01:09:45;;;;;;;3.43;2.23;;;;;;;;;;5063947;28;20245;-67
2022/01/14 01:12:47;;;;;;;4.43;2.23;;;;;;;;;;5064045;28;20693;-68
2022/01/14 01:15:34;;;;;;;4.80;2.30;;;;;;;;;;5064755;28;20222;-68
2022/01/14 01:18:22;;;;;;;4.33;2.20;;;;;;;;;;5065486;28;20273;-67
2022/01/14 01:21:09;;;;;;;4.20;2.50;;;;;;;;;;5067780;28;20292;-67
2022/01/14 01:23:56;;;;;;;3.63;1.97;;;;;;;;;;5064152;28;20691;-67
2022/01/14 01:26:43;;;;;;;3.90;2.60;;;;;;;;;;5064618;28;20270;-67
2022/01/14 01:29:47;;;;;;;3.87;2.30;;;;;;;;;;5063145;28;20210;-67
2022/01/14 01:32:34;;;;;;;4.57;2.50;;;;;;;;;;5067030;28;20207;-67
2022/01/14 01:35:21;;;;;;;2.90;2.00;;;;;;;;;;5062109;28;20223;-67
2022/01/14 01:38:09;;;;;;;4.07;2.37;;;;;;;;;;5061738;28;20772;-67
2022/01/14 01:40:56;;;;;;;5.93;2.33;;;;;;;;;;5066015;28;20694;-67
2022/01/14 01:43:50;;;;;;;5.40;2.30;;;;;;;;;;5065073;28;20698;-69
2022/01/14 01:46:40;;;;;;;4.17;2.30;;;;;;;;;;5064574;28;20291;-68
2022/01/14 01:49:31;;;;;;;4.27;2.50;;;;;;;;;;5063288;28;20214;-67
2022/01/14 01:52:17;;;;;;;4.07;2.60;;;;;;;;;;5060561;28;20204;-67
2022/01/14 01:55:06;;;;;;;5.77;2.67;;;;;;;;;;5063711;28;20262;-67
2022/01/14 01:57:54;;;;;;;2.67;1.93;;;;;;;;;;5062385;28;20240;-67
2022/01/14 02:00:41;;;;;;;4.50;2.57;;;;;;;;;;5065849;28;20258;-67
2022/01/14 02:03:29;;;;;;;3.30;2.63;;;;;;;;;;5064801;28;20226;-68
2022/01/14 02:06:16;;;;;;;4.23;2.33;;;;;;;;;;5062904;28;20207;-67
2022/01/14 02:09:03;;;;;;;3.20;2.10;;;;;;;;;;5063631;28;20232;-67
2022/01/14 02:11:51;;;;;;;3.13;2.23;;;;;;;;;;5064201;28;20272;-67
2022/01/14 02:14:54;;;;;;;5.90;2.47;;;;;;;;;;5065548;28;20252;-67
2022/01/14 02:18:03;;;;;;;4.23;2.33;;;;;;;;;;5066843;28;20553;-67
2022/01/14 02:24:09;;;;;;;4.27;2.60;;;;;;;;;;5066611;28;20694;-67
2022/01/14 02:26:56;;;;;;;4.37;2.43;;;;;;;;;;5065224;28;20552;-67
2022/01/14 02:29:43;;;;;;;4.30;2.20;;;;;;;;;;5063695;28;20352;-67
2022/01/14 02:32:30;;;;;;;4.63;2.77;;;;;;;;;;5063112;28;20205;-67
2022/01/14 02:35:17;;;;;;;3.97;2.10;;;;;;;;;;5065777;28;20274;-67
2022/01/14 02:38:06;;;;;;;3.33;2.37;;;;;;;;;;5063483;28;20809;-67
2022/01/14 02:40:53;;;;;;;4.50;2.10;;;;;;;;;;5061885;28;20305;-67
2022/01/14 02:43:40;;;;;;;3.57;2.50;;;;;;;;;;5064139;28;20260;-67
2022/01/14 02:46:27;;;;;;;3.87;2.43;;;;;;;;;;5063866;28;20210;-67
2022/01/14 02:49:14;;;;;;;4.03;2.20;;;;;;;;;;5065120;28;20212;-67
2022/01/14 02:52:05;;;;;;;3.67;2.40;;;;;;;;;;5062965;28;20211;-67
2022/01/14 02:55:03;;;;;;;3.40;2.30;;;;;;;;;;5062101;28;20308;-67
2022/01/14 02:57:51;;;;;;;3.33;2.10;;;;;;;;;;5059040;28;20291;-67
2022/01/14 03:00:38;;;;;;;3.53;2.27;;;;;;;;;;5065507;28;20351;-67
2022/01/14 03:03:27;;;;;;;2.70;2.33;;;;;;;;;;5066148;28;20344;-67
2022/01/14 03:06:15;;;;;;;3.70;2.37;;;;;;;;;;5062032;28;20193;-68
2022/01/14 03:09:03;;;;;;;5.60;2.60;;;;;;;;;;5061828;28;20337;-67
2022/01/14 03:11:54;;;;;;;4.60;2.73;;;;;;;;;;5062518;28;20260;-67
2022/01/14 03:14:41;;;;;;;3.33;2.10;;;;;;;;;;5064054;28;20308;-67
2022/01/14 03:17:29;;;;;;;3.93;2.13;;;;;;;;;;5061404;28;20203;-68
2022/01/14 03:20:40;;;;;;;3.93;2.50;;;;;;;;;;5064060;28;20236;-67
2022/01/14 03:23:27;;;;;;;3.10;2.30;;;;;;;;;;5065436;28;20707;-67
2022/01/14 03:26:16;;;;;;;3.37;2.10;;;;;;;;;;5062088;28;20305;-67
2022/01/14 03:29:04;;;;;;;3.70;2.50;;;;;;;;;;5062848;28;20317;-67
2022/01/14 03:31:51;;;;;;;6.13;2.67;;;;;;;;;;5058292;28;20227;-67
2022/01/14 03:34:39;;;;;;;3.40;2.43;;;;;;;;;;5064696;28;20314;-67
2022/01/14 03:37:26;;;;;;;4.03;2.37;;;;;;;;;;5061153;28;20694;-67
2022/01/14 03:40:13;;;;;;;3.33;2.07;;;;;;;;;;5066509;28;20314;-67
2022/01/14 03:43:00;;;;;;;3.60;2.53;;;;;;;;;;5061203;28;20634;-67
2022/01/14 03:45:50;;;;;;;3.20;2.00;;;;;;;;;;5061135;28;20215;-68
2022/01/14 03:48:37;;;;;;;4.13;2.33;;;;;;;;;;5059984;28;20261;-67
2022/01/14 03:51:26;;;;;;;4.90;1.77;;;;;;;;;;5059577;28;20668;-67
2022/01/14 03:54:13;;;;;;;4.53;2.40;;;;;;;;;;5066210;28;20208;-67
2022/01/14 03:57:00;;;;;;;3.67;2.10;;;;;;;;;;5061333;28;20226;-67
2022/01/14 03:59:47;;;;;;;3.53;2.40;;;;;;;;;;5065047;28;20265;-68
2022/01/14 04:02:35;;;;;;;4.57;2.50;;;;;;;;;;5060947;28;20742;-68
2022/01/14 04:05:22;;;;;;;5.03;2.07;;;;;;;;;;5063246;28;20743;-67
2022/01/14 04:08:09;;;;;;;3.57;2.10;;;;;;;;;;5061468;28;20246;-67
2022/01/14 04:10:58;;;;;;;4.03;2.27;;;;;;;;;;5063486;28;20613;-68
2022/01/14 04:13:48;;;;;;;3.67;2.20;;;;;;;;;;5063555;28;20679;-67
2022/01/14 04:16:37;;;;;;;2.50;1.97;;;;;;;;;;5064206;28;20718;-67
2022/01/14 04:19:27;;;;;;;4.50;2.40;;;;;;;;;;5060976;28;20355;-67
2022/01/14 04:22:14;;;;;;;2.77;2.03;;;;;;;;;;5062022;28;20208;-67
2022/01/14 04:25:01;;;;;;;2.53;1.77;;;;;;;;;;5061358;28;20332;-67
2022/01/14 04:27:49;;;;;;;2.03;1.67;;;;;;;;;;5059403;28;20273;-67
2022/01/14 04:30:37;;;;;;;2.53;1.90;;;;;;;;;;5062240;28;20223;-67
2022/01/14 04:33:25;;;;;;;2.40;1.80;;;;;;;;;;5061471;28;20280;-67
2022/01/14 04:36:13;;;;;;;5.00;2.20;;;;;;;;;;5062819;28;20233;-67
2022/01/14 04:39:00;;;;;;;5.03;2.00;;;;;;;;;;5062816;28;20780;-67
2022/01/14 04:41:47;;;;;;;3.37;2.10;;;;;;;;;;5057701;28;20291;-69
2022/01/14 04:44:34;;;;;;;4.47;2.10;;;;;;;;;;5063826;28;20762;-67
2022/01/14 04:47:32;;;;;;;4.33;2.07;;;;;;;;;;5055597;28;20673;-67
2022/01/14 04:50:20;;;;;;;3.23;2.30;;;;;;;;;;5063308;28;20288;-67
2022/01/14 04:53:10;;;;;;;3.53;1.87;;;;;;;;;;5058812;28;20211;-67
2022/01/14 04:55:57;;;;;;;3.20;1.90;;;;;;;;;;5063332;28;20235;-67
2022/01/14 04:58:44;;;;;;;3.43;2.30;;;;;;;;;;5061470;28;20269;-67
2022/01/14 05:01:32;;;;;;;2.30;1.90;;;;;;;;;;5061118;28;20632;-67
2022/01/14 05:04:19;;;;;;;2.53;1.90;;;;;;;;;;5060878;28;20231;-67
2022/01/14 05:07:09;;;;;;;2.47;1.77;;;;;;;;;;5058742;28;20666;-67
2022/01/14 05:10:15;;;;;;;2.20;1.93;;;;;;;;;;5060611;28;20780;-67
2022/01/14 05:13:02;;;;;;;2.37;1.80;;;;;;;;;;5064535;28;20579;-67
2022/01/14 05:15:49;;;;;;;3.17;2.23;;;;;;;;;;5066544;28;20533;-67
2022/01/14 05:18:38;;;;;;;2.50;1.87;;;;;;;;;;5065688;28;20290;-67
2022/01/14 05:21:25;;;;;;;2.50;2.03;;;;;;;;;;5062639;28;20257;-67
2022/01/14 05:24:11;;;;;;;3.17;2.17;;;;;;;;;;5063175;28;20298;-67
2022/01/14 05:27:00;;;;;;;2.73;1.87;;;;;;;;;;5066067;28;20741;-67
2022/01/14 05:29:47;;;;;;;3.13;2.00;;;;;;;;;;5064049;28;20218;-67
2022/01/14 05:32:34;;;;;;;3.43;1.97;;;;;;;;;;5066960;28;20218;-68
2022/01/14 05:35:23;;;;;;;2.57;1.70;;;;;;;;;;5062445;28;20219;-68
2022/01/14 05:38:10;;;;;;;2.17;1.97;;;;;;;;;;5063217;28;20690;-68
2022/01/14 05:40:57;;;;;;;3.50;1.87;;;;;;;;;;5064858;28;20212;-67
2022/01/14 05:43:46;;;;;;;2.23;1.73;;;;;;;;;;5064006;28;20338;-68
2022/01/14 05:46:33;;;;;;;3.77;1.97;;;;;;;;;;5066169;28;20195;-68
2022/01/14 05:49:20;;;;;;;3.57;1.83;;;;;;;;;;5062629;28;20321;-69
2022/01/14 05:52:07;;;;;;;2.07;1.80;;;;;;;;;;5066038;28;20325;-68
2022/01/14 05:54:55;;;;;;;2.37;1.57;;;;;;;;;;5065559;28;20247;-68
2022/01/14 05:57:42;;;;;;;2.70;1.87;;;;;;;;;;5061786;28;20202;-68
2022/01/14 06:00:30;;;;;;;2.73;1.80;;;;;;;;;;5065088;28;20244;-67
2022/01/14 06:03:17;;;;;;;2.03;1.77;;;;;;;;;;5063113;28;20745;-68
2022/01/14 06:06:04;;;;;;;2.67;1.80;;;;;;;;;;5067949;28;20207;-68
2022/01/14 06:08:51;;;;;;;3.17;1.80;;;;;;;;;;5066740;28;20316;-68
2022/01/14 06:11:38;;;;;;;2.50;1.70;;;;;;;;;;5061853;28;20234;-69
2022/01/14 06:14:25;;;;;;;2.30;1.47;;;;;;;;;;5067248;28;20211;-67
2022/01/14 06:17:14;;;;;;;2.67;1.93;;;;;;;;;;5064387;28;20339;-68
2022/01/14 06:20:03;;;;;;;2.37;1.60;;;;;;;;;;5066911;28;20211;-68
2022/01/14 06:22:50;;;;;;;2.73;1.80;;;;;;;;;;5064525;28;20204;-69
2022/01/14 06:25:37;;;;;;;2.03;1.53;;;;;;;;;;5059830;28;20345;-70
2022/01/14 06:28:24;;;;;;;1.67;1.50;;;;;;;;;;5065010;28;20292;-68
2022/01/14 06:31:11;;;;;;;2.57;2.03;;;;;;;;;;5064816;28;20678;-67
2022/01/14 06:33:59;;;;;;;1.20;1.10;;;;;;;;;;5064287;28;20284;-68
2022/01/14 06:36:46;;;;;;;2.23;1.57;;;;;;;;;;5062706;28;20231;-68
2022/01/14 06:39:33;;;;;;;1.87;1.50;;;;;;;;;;5058843;28;20311;-68
2022/01/14 06:42:20;;;;;;;1.90;1.23;;;;;;;;;;5064107;28;20748;-67
2022/01/14 06:45:08;;;;;;;2.60;1.67;;;;;;;;;;5064764;28;20817;-67
2022/01/14 06:47:55;;;;;;;1.67;1.57;;;;;;;;;;5065232;28;20252;-68
2022/01/14 06:50:44;;;;;;;2.40;1.70;;;;;;;;;;5064119;28;20222;-67
2022/01/14 06:53:30;;;;;;;2.13;1.50;;;;;;;;;;5063681;28;20288;-67
2022/01/14 06:56:18;;;;;;;2.37;1.87;;;;;;;;;;5065159;28;20300;-68
2022/01/14 06:59:05;;;;;;;3.67;1.70;;;;;;;;;;5063280;28;20241;-68
2022/01/14 07:01:53;;;;;;;2.47;1.50;;;;;;;;;;5062904;28;20249;-68
2022/01/14 07:04:40;;;;;;;1.77;1.30;;;;;;;;;;5065336;28;20223;-67
2022/01/14 07:07:28;;;;;;;3.00;1.67;;;;;;;;;;5061608;28;20337;-67
2022/01/14 07:10:15;;;;;;;3.20;1.57;;;;;;;;;;5062897;28;20246;-67
2022/01/14 07:13:03;;;;;;;2.57;1.70;;;;;;;;;;5062309;28;20695;-67
2022/01/14 07:15:50;;;;;;;1.83;1.40;;;;;;;;;;5064992;28;20226;-67
2022/01/14 07:18:37;;;;;;;2.20;1.30;;;;;;;;;;5061588;28;20304;-67
2022/01/14 07:21:23;;;;;;;1.73;1.20;;;;;;;;;;5057244;28;20209;-67
2022/01/14 07:24:13;;;;;;;1.73;1.20;;;;;;;;;;5061849;28;20619;-67
2022/01/14 07:27:00;;;;;;;1.03;1.00;;;;;;;;;;5064079;28;20208;-68
2022/01/14 07:29:46;;;;;;;2.10;1.50;;;;;;;;;;5062267;28;20300;-67
2022/01/14 07:32:33;;;;;;;2.07;1.23;;;;;;;;;;5061642;28;20211;-67
2022/01/14 07:35:20;;;;;;;1.73;1.13;;;;;;;;;;5061208;28;20243;-67
2022/01/14 07:38:07;;;;;;;2.60;1.50;;;;;;;;;;5063888;28;20587;-68
2022/01/14 07:40:56;;;;;;;1.77;1.30;;;;;;;;;;5066329;28;20625;-67
2022/01/14 07:43:46;;;;;;;3.27;1.67;;;;;;;;;;5063687;28;20211;-67
2022/01/14 07:46:35;;;;;;;1.50;1.40;;;;;;;;;;5061171;28;20206;-67
2022/01/14 07:49:22;;;;;;;2.80;1.63;;;;;;;;;;5063339;28;20195;-67
2022/01/14 07:52:09;;;;;;;2.23;1.40;;;;;;;;;;5055578;28;20247;-67
2022/01/14 07:54:56;;;;;;;1.97;1.30;;;;;;;;;;5058378;28;20298;-67
2022/01/14 07:57:44;;;;;;;3.03;1.53;;;;;;;;;;5062055;28;20369;-67
2022/01/14 08:00:32;;;;;;;1.30;1.20;;;;;;;;;;5058926;28;20689;-66
2022/01/14 08:03:19;;;;;;;1.93;1.40;;;;;;;;;;5063434;28;20611;-67
2022/01/14 08:06:07;;;;;;;2.73;1.87;;;;;;;;;;5063932;28;20235;-68
2022/01/14 08:08:54;;;;;;;1.40;1.30;;;;;;;;;;5061154;28;20208;-67
2022/01/14 08:11:41;;;;;;;2.00;1.47;;;;;;;;;;5064994;28;20238;-67
2022/01/14 08:14:30;;;;;;;1.93;1.40;;;;;;;;;;5060675;28;20325;-67
2022/01/14 08:17:19;;;;;;;1.43;1.20;;;;;;;;;;5061786;28;20235;-67
2022/01/14 08:20:07;;;;;;;1.47;1.30;;;;;;;;;;5062975;28;20233;-67
2022/01/14 08:22:54;;;;;;;1.50;1.30;;;;;;;;;;5058075;28;20218;-67
2022/01/14 08:25:42;;;;;;;1.60;1.27;;;;;;;;;;5062635;28;20214;-67
2022/01/14 08:28:29;;;;;;;1.67;1.30;;;;;;;;;;5056953;28;20199;-67
2022/01/14 08:31:18;;;;;;;2.30;1.33;;;;;;;;;;5064309;28;20582;-67
2022/01/14 08:34:05;;;;;;;1.50;1.40;;;;;;;;;;5062866;28;20285;-68
2022/01/14 08:36:52;;;;;;;1.40;1.27;;;;;;;;;;5061428;28;20877;-67
2022/01/14 08:39:39;;;;;;;1.63;1.33;;;;;;;;;;5061479;28;20287;-68
2022/01/14 08:42:26;;;;;;;1.20;1.10;;;;;;;;;;5057706;28;20301;-67
2022/01/14 08:45:18;;;;;;;2.20;1.20;;;;;;;;;;5064151;28;20290;-67
2022/01/14 08:48:06;;;;;;;1.47;0.93;;;;;;;;;;5067287;28;20672;-67
2022/01/14 08:50:53;;;;;;;2.27;1.30;;;;;;;;;;5066706;28;20228;-68
2022/01/14 08:53:40;;;;;;;2.13;1.60;;;;;;;;;;5068407;28;20325;-68
2022/01/14 08:56:27;;;;;;;1.50;1.20;;;;;;;;;;5062000;28;20285;-67
2022/01/14 08:59:16;;;;;;;1.80;1.23;;;;;;;;;;5064906;28;20244;-68
2022/01/14 09:02:04;;;;;;;2.17;1.30;;;;;;;;;;5062960;28;20234;-67
2022/01/14 09:04:52;;;;;;;1.17;1.10;;;;;;;;;;5064811;28;20273;-67
2022/01/14 09:07:41;;;;;;;1.37;1.17;;;;;;;;;;5067340;28;20214;-69
2022/01/14 09:10:28;;;;;;;2.20;1.30;;;;;;;;;;5067854;28;20231;-68
2022/01/14 09:13:15;;;;;;;1.83;1.30;;;;;;;;;;5066346;28;20298;-68
2022/01/14 09:16:02;;;;;;;1.60;1.23;;;;;;;;;;5066044;28;20272;-68
2022/01/14 09:18:49;;;;;;;1.50;1.10;;;;;;;;;;5064537;28;20260;-67
2022/01/14 09:21:37;;;;;;;1.67;1.20;;;;;;;;;;5068187;28;20242;-67
2022/01/14 09:24:24;;;;;;;1.13;0.90;;;;;;;;;;5068097;28;20235;-67
2022/01/14 09:27:12;;;;;;;1.77;1.20;;;;;;;;;;5064758;28;20353;-67
2022/01/14 09:29:59;;;;;;;1.40;0.87;;;;;;;;;;5064024;28;20253;-68
2022/01/14 09:32:47;;;;;;;1.57;1.43;;;;;;;;;;5066715;28;20584;-67
2022/01/14 09:35:34;;;;;;;1.20;0.93;;;;;;;;;;5067228;28;20294;-67
2022/01/14 09:38:23;;;;;;;1.20;0.80;;;;;;;;;;5062056;28;20301;-67
2022/01/14 09:41:10;;;;;;;1.40;1.17;;;;;;;;;;5065567;28;20303;-68
2022/01/14 09:43:57;;;;;;;1.83;1.20;;;;;;;;;;5066412;28;20214;-67
2022/01/14 09:46:44;;;;;;;1.23;1.00;;;;;;;;;;5064548;28;20277;-68
2022/01/14 09:49:31;;;;;;;1.57;1.20;;;;;;;;;;5066284;28;20298;-67
2022/01/14 09:52:19;;;;;;;1.07;1.00;;;;;;;;;;5064567;28;20861;-68
2022/01/14 09:55:08;;;;;;;1.77;1.00;;;;;;;;;;5068007;28;20285;-68
2022/01/14 09:57:57;;;;;;;1.67;1.10;;;;;;;;;;5062523;28;20272;-67
2022/01/14 10:00:45;;;;;;;1.30;1.20;;;;;;;;;;5060945;28;20217;-68
2022/01/14 10:03:32;;;;;;;1.63;0.97;;;;;;;;;;5063669;28;20199;-67
2022/01/14 10:06:39;;;;;;;1.27;0.87;;;;;;;;;;5061412;28;20211;-68
2022/01/14 10:09:34;;;;;;;1.87;1.20;;;;;;;;;;5065558;28;20266;-67
2022/01/14 10:12:23;;;;;;;1.87;1.47;;;;;;;;;;5063465;28;20227;-67
2022/01/14 10:15:11;;;;;;;2.00;1.50;;;;;;;;;;5064502;28;20208;-67
2022/01/14 10:18:01;;;;;;;1.60;1.40;;;;;;;;;;5065259;28;20360;-68
2022/01/14 10:20:49;;;;;;;2.33;1.40;;;;;;;;;;5063773;28;20213;-67
2022/01/14 10:23:41;;;;;;;1.87;1.27;;;;;;;;;;5066022;28;20203;-67
2022/01/14 10:26:30;;;;;;;1.13;1.03;;;;;;;;;;5061976;28;20212;-67
2022/01/14 10:29:30;;;;;;;2.17;1.53;;;;;;;;;;5066069;28;20219;-68
2022/01/14 10:32:19;;;;;;;2.27;1.57;;;;;;;;;;5065090;28;20735;-67
2022/01/14 10:35:07;;;;;;;2.83;1.13;;;;;;;;;;5064319;28;20258;-67
2022/01/14 10:37:56;;;;;;;1.97;1.50;;;;;;;;;;5064729;28;20323;-67
2022/01/14 10:40:45;;;;;;;1.23;1.13;;;;;;;;;;5063345;28;20290;-67
2022/01/14 10:43:35;;;;;;;1.77;1.40;;;;;;;;;;5063947;28;20297;-68
2022/01/14 10:46:29;;;;;;;1.23;1.13;;;;;;;;;;5063673;28;20698;-68
2022/01/14 10:49:32;;;;;;;1.50;1.17;;;;;;;;;;5059578;28;20204;-68
2022/01/14 10:52:21;;;;;;;2.80;1.50;;;;;;;;;;5066048;28;20215;-67
2022/01/14 10:55:08;;;;;;;1.70;1.40;;;;;;;;;;5063339;28;20245;-68
2022/01/14 10:57:55;;;;;;;1.57;1.33;;;;;;;;;;5061609;28;20682;-67
2022/01/14 11:00:44;;;;;;;2.27;1.27;;;;;;;;;;5065350;28;20751;-67
2022/01/14 11:03:40;;;;;;;1.50;1.37;;;;;;;;;;5061879;28;20266;-67
2022/01/14 11:06:30;;;;;;;1.50;1.30;;;;;;;;;;5061712;28;20654;-68
2022/01/14 11:09:22;;;;;;;1.50;1.23;;;;;;;;;;5060289;28;20762;-68
2022/01/14 11:12:09;;;;;;;2.40;1.50;;;;;;;;;;5064069;28;20235;-67
2022/01/14 11:14:56;;;;;;;2.03;1.13;;;;;;;;;;5062232;28;20303;-67
2022/01/14 11:17:46;;;;;;;1.90;1.37;;;;;;;;;;5060094;28;20353;-68
2022/01/14 11:23:14;;;;;;;1.20;1.10;;;;;;;;;;5062100;28;20202;-67
2022/01/14 11:23:43;;;;;;;1.27;1.00;;;;;;;;;;5062690;28;20642;-67
2022/01/14 11:26:34;;;;;;;3.20;1.67;;;;;;;;;;5060859;28;20217;-68
2022/01/14 11:29:23;;;;;;;2.20;1.40;;;;;;;;;;5062406;28;20246;-67
2022/01/14 11:32:10;;;;;;;2.13;1.40;;;;;;;;;;5061434;28;20220;-67
2022/01/14 11:34:57;;;;;;;2.07;1.23;;;;;;;;;;5062735;28;20237;-68
2022/01/14 11:37:46;;;;;;;2.63;1.47;;;;;;;;;;5062746;28;20304;-68
2022/01/14 11:40:48;;;;;;;1.70;1.23;;;;;;;;;;5060524;28;20210;-68
2022/01/14 11:43:40;;;;;;;1.63;1.10;;;;;;;;;;5061231;28;20301;-68
2022/01/14 11:46:47;;;;;;;2.20;1.53;;;;;;;;;;5061581;28;20711;-69
2022/01/14 11:49:36;;;;;;;1.87;1.77;;;;;;;;;;5059428;28;20316;-69
2022/01/14 11:52:34;;;;;;;2.67;1.23;;;;;;;;;;5062167;28;20212;-69
2022/01/14 11:55:38;;;;;;;2.13;1.07;;;;;;;;;;5060818;28;20259;-69
2022/01/14 11:58:25;;;;;;;1.03;0.90;;;;;;;;;;5058681;28;20214;-68
2022/01/14 12:01:33;;;;;;;2.00;1.40;;;;;;;;;;5063551;28;20723;-68
2022/01/14 12:04:20;;;;;;;2.53;1.40;;;;;;;;;;5059942;28;20264;-68
2022/01/14 12:07:07;;;;;;;1.50;0.97;;;;;;;;;;5063484;28;20197;-68
2022/01/14 12:10:00;;;;;;;2.77;1.17;;;;;;;;;;5061133;28;20290;-68
2022/01/14 12:12:51;;;;;;;1.20;1.00;;;;;;;;;;5063435;28;20707;-68
2022/01/14 12:15:47;;;;;;;1.43;1.17;;;;;;;;;;5061768;28;20374;-68
2022/01/14 12:19:21;;;;;;;2.30;1.17;;;;;;;;;;5060957;28;20231;-68
2022/01/14 12:22:10;;;;;;;1.67;1.10;;;;;;;;;;5066533;28;20210;-68
2022/01/14 12:24:58;;;;;;;1.50;1.20;;;;;;;;;;5065219;28;20840;-70
2022/01/14 12:27:47;;;;;;;1.40;1.17;;;;;;;;;;5065368;28;20297;-69
2022/01/14 12:30:35;;;;;;;1.43;1.20;;;;;;;;;;5064208;28;20202;-68
2022/01/14 12:33:40;;;;;;;1.80;1.37;;;;;;;;;;5062798;28;20212;-68
2022/01/14 12:36:27;;;;;;;1.90;1.50;;;;;;;;;;5064772;28;20203;-69
2022/01/14 12:39:14;;;;;;;3.20;2.10;;;;;;;;;;5064282;28;20235;-69
2022/01/14 12:42:02;;;;;;;2.23;1.97;;;;;;;;;;5062927;28;20300;-68
2022/01/14 12:44:51;;;;;;;2.60;1.83;;;;;;;;;;5065066;28;20253;-68
2022/01/14 12:47:42;;;;;;;1.67;1.57;;;;;;;;;;5063096;28;20204;-68
2022/01/14 12:50:30;;;;;;;1.60;1.43;;;;;;;;;;5067394;28;20345;-68
2022/01/14 12:53:18;;;;;;;1.67;1.57;;;;;;;;;;5066033;28;20212;-68
2022/01/14 12:56:15;;;;;;;2.37;1.87;;;;;;;;;;5066313;28;20219;-68
2022/01/14 12:59:06;;;;;;;1.70;1.60;;;;;;;;;;5067453;28;20215;-69
2022/01/14 13:01:54;;;;;;;1.70;1.60;;;;;;;;;;5068108;28;20221;-68
2022/01/14 13:04:43;;;;;;;1.77;1.53;;;;;;;;;;5071101;28;20255;-68
2022/01/14 13:07:31;;;;;;;1.37;1.27;;;;;;;;;;5066623;28;20231;-68
2022/01/14 13:10:18;;;;;;;1.57;1.47;;;;;;;;;;5064133;28;20238;-69
2022/01/14 13:13:05;;;;;;;1.63;1.53;;;;;;;;;;5064055;28;20225;-68
2022/01/14 13:15:55;;;;;;;1.83;1.40;;;;;;;;;;5066533;28;20978;-68
2022/01/14 13:18:45;;;;;;;2.37;1.40;;;;;;;;;;5069708;28;20586;-69
2022/01/14 13:21:33;;;;;;;1.73;1.40;;;;;;;;;;5066546;28;20570;-68
2022/01/14 13:24:22;;;;;;;2.53;1.37;;;;;;;;;;5064743;28;20213;-68
2022/01/14 13:27:12;;;;;;;1.87;1.50;;;;;;;;;;5065068;28;20626;-69
2022/01/14 13:30:01;;;;;;;1.57;1.20;;;;;;;;;;5064659;28;20203;-69
2022/01/14 13:32:51;;;;;;;1.00;1.00;;;;;;;;;;5063931;28;20263;-68
2022/01/14 13:35:39;;;;;;;1.97;1.17;;;;;;;;;;5066941;28;20215;-68
2022/01/14 13:38:27;;;;;;;1.33;1.23;;;;;;;;;;5064095;28;20700;-68
2022/01/14 13:41:24;;;;;;;1.47;1.20;;;;;;;;;;5065597;28;20249;-68
2022/01/14 13:44:18;;;;;;;1.43;1.13;;;;;;;;;;5063694;28;20254;-68
2022/01/14 13:47:11;;;;;;;1.10;0.90;;;;;;;;;;5063084;28;20234;-68
2022/01/14 13:50:10;;;;;;;1.60;1.10;;;;;;;;;;5064600;28;20515;-68
2022/01/14 13:53:02;;;;;;;1.77;1.40;;;;;;;;;;5065221;28;20203;-70
2022/01/14 13:55:54;;;;;;;1.63;1.43;;;;;;;;;;5068354;28;20579;-68
2022/01/14 13:58:44;;;;;;;1.43;1.30;;;;;;;;;;5063829;28;20220;-70
2022/01/14 14:01:31;;;;;;;1.47;1.20;;;;;;;;;;5066498;28;20212;-69
2022/01/14 14:04:27;;;;;;;2.53;1.33;;;;;;;;;;5065603;28;20231;-68
2022/01/14 14:07:18;;;;;;;1.97;1.13;;;;;;;;;;5063011;28;20223;-69
2022/01/14 14:10:19;;;;;;;1.20;1.20;;;;;;;;;;5065232;28;20707;-68
2022/01/14 14:13:28;;;;;;;1.37;1.17;;;;;;;;;;5064875;28;20260;-69
2022/01/14 14:16:28;;;;;;;2.03;1.50;;;;;;;;;;5066320;28;20234;-69
2022/01/14 14:19:15;;;;;;;2.20;1.50;;;;;;;;;;5066594;28;20222;-69
2022/01/14 14:22:07;;;;;;;1.57;1.10;;;;;;;;;;5064472;28;20687;-68
2022/01/14 14:24:56;;;;;;;1.40;1.30;;;;;;;;;;5065059;28;20215;-68
2022/01/14 14:27:54;;;;;;;1.50;1.40;;;;;;;;;;5063719;28;20208;-68
2022/01/14 14:30:48;;;;;;;1.20;1.10;;;;;;;;;;5063797;28;20212;-69
2022/01/14 14:33:35;;;;;;;1.60;1.50;;;;;;;;;;5068833;28;20207;-68
2022/01/14 14:36:26;;;;;;;1.70;1.60;;;;;;;;;;5063056;28;20414;-69
2022/01/14 14:39:13;;;;;;;1.60;1.30;;;;;;;;;;5062053;28;20240;-68
2022/01/14 14:42:00;;;;;;;1.93;1.50;;;;;;;;;;5061860;28;20239;-68
2022/01/14 14:44:48;;;;;;;1.37;1.20;;;;;;;;;;5066434;28;20222;-69
2022/01/14 14:47:36;;;;;;;1.40;1.27;;;;;;;;;;5067546;28;20660;-68
2022/01/14 14:50:27;;;;;;;1.90;1.70;;;;;;;;;;5065108;28;20319;-68
2022/01/14 14:53:14;;;;;;;2.13;1.30;;;;;;;;;;5066734;28;20258;-68
2022/01/14 14:56:01;;;;;;;2.20;1.50;;;;;;;;;;5064592;28;20319;-69
2022/01/14 14:58:48;;;;;;;2.17;1.53;;;;;;;;;;5064639;28;20269;-69
2022/01/14 15:01:35;;;;;;;1.87;1.53;;;;;;;;;;5064282;28;20247;-68
2022/01/14 15:04:28;;;;;;;1.70;1.57;;;;;;;;;;5082728;27;1333676;-69
2022/01/14 15:07:16;;;;;;;1.40;1.30;;;;;;;;;;5101089;28;20220;-70
2022/01/14 15:10:04;;;;;;;2.30;1.70;;;;;;;;;;5099399;28;20752;-69
2022/01/14 15:12:52;;;;;;;1.93;1.73;;;;;;;;;;5093859;28;20351;-70
2022/01/14 15:15:59;;;;;;;1.93;1.33;;;;;;;;;;5098002;28;20309;-69
2022/01/14 15:18:46;;;;;;;1.57;1.47;;;;;;;;;;5097619;28;20209;-69
2022/01/14 15:21:34;;;;;;;1.40;1.30;;;;;;;;;;5096952;28;20239;-69
2022/01/14 15:24:21;;;;;;;1.53;1.37;;;;;;;;;;5100156;28;20305;-68
2022/01/14 15:27:08;;;;;;;1.60;1.50;;;;;;;;;;5099828;28;20240;-69
2022/01/14 15:29:55;;;;;;;2.30;1.60;;;;;;;;;;5101822;28;20654;-69
2022/01/14 15:32:43;;;;;;;2.40;1.77;;;;;;;;;;5100757;28;20701;-69
2022/01/14 15:35:30;;;;;;;1.67;1.57;;;;;;;;;;5095525;28;20290;-69
2022/01/14 15:38:18;;;;;;;2.07;1.70;;;;;;;;;;5100674;28;20239;-69
2022/01/14 15:41:05;;;;;;;1.60;1.50;;;;;;;;;;5101320;28;20522;-68
2022/01/14 15:43:52;;;;;;;2.27;1.47;;;;;;;;;;5095430;28;20230;-69
2022/01/14 15:46:39;;;;;;;2.67;1.60;;;;;;;;;;5098186;28;20655;-69
2022/01/14 15:49:26;;;;;;;1.63;1.53;;;;;;;;;;5098719;28;20259;-68
2022/01/14 15:52:14;;;;;;;1.80;1.70;;;;;;;;;;5098249;28;20299;-69
2022/01/14 15:55:02;;;;;;;1.63;1.53;;;;;;;;;;5098757;28;20210;-69
2022/01/14 15:57:49;;;;;;;1.40;1.30;;;;;;;;;;5097182;28;20243;-69
2022/01/14 16:00:37;;;;;;;1.53;1.43;;;;;;;;;;5096247;28;20203;-68
2022/01/14 16:03:24;;;;;;;1.87;1.47;;;;;;;;;;5094858;28;20327;-69
2022/01/14 16:06:12;;;;;;;2.30;1.60;;;;;;;;;;5098447;28;20203;-70
2022/01/14 16:08:59;;;;;;;1.60;1.50;;;;;;;;;;5099312;28;21483;-70
2022/01/14 16:11:48;;;;;;;2.30;1.80;;;;;;;;;;5097874;28;20205;-68
2022/01/14 16:14:35;;;;;;;1.40;1.20;;;;;;;;;;5091072;28;20219;-69
2022/01/14 16:17:21;;;;;;;2.73;1.33;;;;;;;;;;5082794;28;20334;-68
2022/01/14 16:20:11;;;;;;;1.47;1.30;;;;;;;;;;5085416;28;20235;-68
2022/01/14 16:22:58;;;;;;;2.30;1.57;;;;;;;;;;5084678;28;20316;-69
2022/01/14 16:25:45;;;;;;;1.53;1.43;;;;;;;;;;5083114;28;20631;-69
2022/01/14 16:28:34;;;;;;;1.63;1.43;;;;;;;;;;5084756;28;20704;-68
2022/01/14 16:31:20;;;;;;;2.50;1.40;;;;;;;;;;5088277;28;20213;-68
2022/01/14 16:34:09;;;;;;;2.03;1.50;;;;;;;;;;5085693;28;20683;-68
2022/01/14 16:36:56;;;;;;;2.10;1.90;;;;;;;;;;5081705;28;20251;-68
2022/01/14 16:39:44;;;;;;;2.80;1.70;;;;;;;;;;5082594;28;20667;-68
2022/01/14 16:42:33;;;;;;;1.67;1.57;;;;;;;;;;5080321;28;20278;-69
2022/01/14 16:45:22;;;;;;;1.80;1.60;;;;;;;;;;5081366;28;20208;-69
2022/01/14 16:48:09;;;;;;;1.80;1.70;;;;;;;;;;5083306;28;20679;-68
2022/01/14 16:50:56;;;;;;;1.50;1.40;;;;;;;;;;5075101;28;20659;-68
2022/01/14 16:53:43;;;;;;;1.97;1.73;;;;;;;;;;5086441;28;20217;-69
2022/01/14 16:56:30;;;;;;;1.97;1.73;;;;;;;;;;5084330;28;20210;-68
2022/01/14 16:59:17;;;;;;;2.30;1.70;;;;;;;;;;5084976;28;20214;-68
2022/01/14 17:02:07;;;;;;;1.50;1.40;;;;;;;;;;5083183;28;20234;-68
2022/01/14 17:04:54;;;;;;;1.73;1.43;;;;;;;;;;5074818;28;20235;-68
2022/01/14 17:07:41;;;;;;;1.87;1.70;;;;;;;;;;5080593;28;20254;-68